sensor_id;sensor_type;location;lat;lon;timestamp;P1;durP1;ratioP1;P2;durP2;ratioP2
25583;SDS011;13463;51.526;9.928;2024-01-11T00:00:35;87.97;;;37.55;;
25583;SDS011;13463;51.526;9.928;2024-01-11T00:03:02;83.93;;;36.85;;
25583;SDS011;13463;51.526;9.928;2024-01-11T00:05:29;83.03;;;35.55;;
25583;SDS011;13463;51.526;9.928;2024-01-11T00:07:56;83.55;;;37.35;;
25583;SDS011;13463;51.526;9.928;2024-01-11T00:10:23;91.03;;;37.83;;
25583;SDS011;13463;51.526;9.928;2024-01-11T00:12:49;83.50;;;37.20;;
25583;SDS011;13463;51.526;9.928;2024-01-11T00:15:15;86.22;;;35.80;;
25583;SDS011;13463;51.526;9.928;2024-01-11T00:17:42;84.45;;;37.40;;
25583;SDS011;13463;51.526;9.928;2024-01-11T00:20:09;86.53;;;39.08;;
25583;SDS011;13463;51.526;9.928;2024-01-11T00:22:37;86.47;;;36.72;;
25583;SDS011;13463;51.526;9.928;2024-01-11T00:25:04;82.68;;;37.63;;
25583;SDS011;13463;51.526;9.928;2024-01-11T00:27:31;100.38;;;39.25;;
25583;SDS011;13463;51.526;9.928;2024-01-11T00:29:57;86.03;;;38.70;;
25583;SDS011;13463;51.526;9.928;2024-01-11T00:32:24;82.13;;;36.28;;
25583;SDS011;13463;51.526;9.928;2024-01-11T00:34:50;94.15;;;38.60;;
25583;SDS011;13463;51.526;9.928;2024-01-11T00:37:17;86.82;;;38.30;;
25583;SDS011;13463;51.526;9.928;2024-01-11T00:39:44;89.28;;;37.42;;
25583;SDS011;13463;51.526;9.928;2024-01-11T00:42:10;95.43;;;37.95;;
25583;SDS011;13463;51.526;9.928;2024-01-11T00:44:37;83.53;;;37.42;;
25583;SDS011;13463;51.526;9.928;2024-01-11T00:47:03;87.25;;;38.05;;
25583;SDS011;13463;51.526;9.928;2024-01-11T00:49:30;85.63;;;35.00;;
25583;SDS011;13463;51.526;9.928;2024-01-11T00:51:57;83.72;;;34.78;;
25583;SDS011;13463;51.526;9.928;2024-01-11T00:54:23;85.03;;;36.58;;
25583;SDS011;13463;51.526;9.928;2024-01-11T00:56:51;82.55;;;34.95;;
25583;SDS011;13463;51.526;9.928;2024-01-11T00:59:18;78.68;;;33.33;;
25583;SDS011;13463;51.526;9.928;2024-01-11T01:01:48;74.55;;;34.25;;
25583;SDS011;13463;51.526;9.928;2024-01-11T01:04:15;84.00;;;35.83;;
25583;SDS011;13463;51.526;9.928;2024-01-11T01:06:42;73.72;;;33.63;;
25583;SDS011;13463;51.526;9.928;2024-01-11T01:09:09;87.80;;;36.25;;
25583;SDS011;13463;51.526;9.928;2024-01-11T01:11:36;87.05;;;36.30;;
25583;SDS011;13463;51.526;9.928;2024-01-11T01:14:02;77.47;;;33.20;;
25583;SDS011;13463;51.526;9.928;2024-01-11T01:16:29;80.07;;;35.22;;
25583;SDS011;13463;51.526;9.928;2024-01-11T01:18:55;85.20;;;35.58;;
25583;SDS011;13463;51.526;9.928;2024-01-11T01:21:22;77.55;;;33.28;;
25583;SDS011;13463;51.526;9.928;2024-01-11T01:23:48;82.55;;;37.72;;
25583;SDS011;13463;51.526;9.928;2024-01-11T01:26:15;81.95;;;36.95;;
25583;SDS011;13463;51.526;9.928;2024-01-11T01:28:41;87.43;;;37.50;;
25583;SDS011;13463;51.526;9.928;2024-01-11T01:31:09;83.75;;;37.58;;
25583;SDS011;13463;51.526;9.928;2024-01-11T01:33:36;79.65;;;35.70;;
25583;SDS011;13463;51.526;9.928;2024-01-11T01:36:03;82.97;;;36.80;;
25583;SDS011;13463;51.526;9.928;2024-01-11T01:38:30;81.32;;;35.78;;
25583;SDS011;13463;51.526;9.928;2024-01-11T01:40:57;82.65;;;37.33;;
25583;SDS011;13463;51.526;9.928;2024-01-11T01:43:23;77.57;;;34.95;;
25583;SDS011;13463;51.526;9.928;2024-01-11T01:45:50;75.95;;;35.40;;
25583;SDS011;13463;51.526;9.928;2024-01-11T01:48:17;87.03;;;37.13;;
25583;SDS011;13463;51.526;9.928;2024-01-11T01:50:44;81.13;;;35.72;;
25583;SDS011;13463;51.526;9.928;2024-01-11T01:53:17;76.07;;;34.30;;
25583;SDS011;13463;51.526;9.928;2024-01-11T01:55:46;81.13;;;34.25;;
25583;SDS011;13463;51.526;9.928;2024-01-11T01:58:14;77.78;;;34.47;;
25583;SDS011;13463;51.526;9.928;2024-01-11T02:03:10;78.22;;;34.13;;
25583;SDS011;13463;51.526;9.928;2024-01-11T02:05:38;78.82;;;32.03;;
25583;SDS011;13463;51.526;9.928;2024-01-11T02:08:06;81.88;;;32.40;;
25583;SDS011;13463;51.526;9.928;2024-01-11T02:10:34;81.00;;;34.10;;
25583;SDS011;13463;51.526;9.928;2024-01-11T02:13:02;79.93;;;33.13;;
25583;SDS011;13463;51.526;9.928;2024-01-11T02:15:35;72.22;;;33.00;;
25583;SDS011;13463;51.526;9.928;2024-01-11T02:18:03;79.68;;;33.67;;
25583;SDS011;13463;51.526;9.928;2024-01-11T02:20:29;80.95;;;35.15;;
25583;SDS011;13463;51.526;9.928;2024-01-11T02:23:00;85.45;;;34.30;;
25583;SDS011;13463;51.526;9.928;2024-01-11T02:25:31;80.70;;;33.33;;
25583;SDS011;13463;51.526;9.928;2024-01-11T02:27:58;86.63;;;33.17;;
25583;SDS011;13463;51.526;9.928;2024-01-11T02:30:24;79.72;;;33.30;;
25583;SDS011;13463;51.526;9.928;2024-01-11T02:32:51;80.55;;;34.70;;
25583;SDS011;13463;51.526;9.928;2024-01-11T02:35:20;88.95;;;33.08;;
25583;SDS011;13463;51.526;9.928;2024-01-11T02:37:47;84.63;;;35.28;;
25583;SDS011;13463;51.526;9.928;2024-01-11T02:40:18;80.55;;;32.97;;
25583;SDS011;13463;51.526;9.928;2024-01-11T02:42:45;83.20;;;33.53;;
25583;SDS011;13463;51.526;9.928;2024-01-11T02:45:12;82.50;;;33.65;;
25583;SDS011;13463;51.526;9.928;2024-01-11T02:47:39;80.75;;;35.20;;
25583;SDS011;13463;51.526;9.928;2024-01-11T02:50:07;73.50;;;32.47;;
25583;SDS011;13463;51.526;9.928;2024-01-11T02:52:34;74.10;;;34.28;;
25583;SDS011;13463;51.526;9.928;2024-01-11T02:55:01;72.88;;;33.35;;
25583;SDS011;13463;51.526;9.928;2024-01-11T02:57:28;78.40;;;33.25;;
25583;SDS011;13463;51.526;9.928;2024-01-11T02:59:54;79.97;;;32.20;;
25583;SDS011;13463;51.526;9.928;2024-01-11T03:02:21;74.97;;;32.25;;
25583;SDS011;13463;51.526;9.928;2024-01-11T03:04:48;76.78;;;33.67;;
25583;SDS011;13463;51.526;9.928;2024-01-11T03:07:14;79.10;;;32.53;;
25583;SDS011;13463;51.526;9.928;2024-01-11T03:09:41;74.22;;;31.92;;
25583;SDS011;13463;51.526;9.928;2024-01-11T03:12:07;78.47;;;32.05;;
25583;SDS011;13463;51.526;9.928;2024-01-11T03:14:34;83.72;;;34.88;;
25583;SDS011;13463;51.526;9.928;2024-01-11T03:17:01;82.78;;;33.83;;
25583;SDS011;13463;51.526;9.928;2024-01-11T03:19:28;79.88;;;33.78;;
25583;SDS011;13463;51.526;9.928;2024-01-11T03:21:54;83.03;;;33.17;;
25583;SDS011;13463;51.526;9.928;2024-01-11T03:24:21;84.40;;;35.00;;
25583;SDS011;13463;51.526;9.928;2024-01-11T03:26:48;83.85;;;35.40;;
25583;SDS011;13463;51.526;9.928;2024-01-11T03:29:15;83.97;;;34.50;;
25583;SDS011;13463;51.526;9.928;2024-01-11T03:31:41;83.93;;;36.15;;
25583;SDS011;13463;51.526;9.928;2024-01-11T03:34:14;83.93;;;35.17;;
25583;SDS011;13463;51.526;9.928;2024-01-11T03:36:40;81.70;;;35.40;;
25583;SDS011;13463;51.526;9.928;2024-01-11T03:39:07;82.45;;;33.17;;
25583;SDS011;13463;51.526;9.928;2024-01-11T03:41:34;84.30;;;32.72;;
25583;SDS011;13463;51.526;9.928;2024-01-11T03:44:00;85.13;;;33.53;;
25583;SDS011;13463;51.526;9.928;2024-01-11T03:46:27;80.15;;;33.63;;
25583;SDS011;13463;51.526;9.928;2024-01-11T03:48:54;83.20;;;33.17;;
25583;SDS011;13463;51.526;9.928;2024-01-11T03:51:22;85.93;;;34.15;;
25583;SDS011;13463;51.526;9.928;2024-01-11T03:53:48;79.32;;;33.50;;
25583;SDS011;13463;51.526;9.928;2024-01-11T03:56:16;74.90;;;32.67;;
25583;SDS011;13463;51.526;9.928;2024-01-11T03:58:42;83.82;;;33.63;;
25583;SDS011;13463;51.526;9.928;2024-01-11T04:01:11;73.70;;;33.80;;
25583;SDS011;13463;51.526;9.928;2024-01-11T04:03:37;85.38;;;34.10;;
25583;SDS011;13463;51.526;9.928;2024-01-11T04:06:04;86.00;;;33.65;;
25583;SDS011;13463;51.526;9.928;2024-01-11T04:08:31;82.75;;;32.22;;
25583;SDS011;13463;51.526;9.928;2024-01-11T04:11:01;77.97;;;32.33;;
25583;SDS011;13463;51.526;9.928;2024-01-11T04:13:28;75.25;;;31.88;;
25583;SDS011;13463;51.526;9.928;2024-01-11T04:15:54;78.80;;;33.42;;
25583;SDS011;13463;51.526;9.928;2024-01-11T04:18:24;77.05;;;32.60;;
25583;SDS011;13463;51.526;9.928;2024-01-11T04:20:51;68.57;;;29.48;;
25583;SDS011;13463;51.526;9.928;2024-01-11T04:23:17;79.70;;;32.20;;
25583;SDS011;13463;51.526;9.928;2024-01-11T04:25:44;83.97;;;31.70;;
25583;SDS011;13463;51.526;9.928;2024-01-11T04:28:10;81.32;;;33.42;;
25583;SDS011;13463;51.526;9.928;2024-01-11T04:30:37;83.55;;;33.35;;
25583;SDS011;13463;51.526;9.928;2024-01-11T04:33:04;76.43;;;31.63;;
25583;SDS011;13463;51.526;9.928;2024-01-11T04:35:30;70.20;;;29.92;;
25583;SDS011;13463;51.526;9.928;2024-01-11T04:37:57;75.07;;;31.17;;
25583;SDS011;13463;51.526;9.928;2024-01-11T04:40:23;81.35;;;33.80;;
25583;SDS011;13463;51.526;9.928;2024-01-11T04:42:50;79.25;;;33.45;;
25583;SDS011;13463;51.526;9.928;2024-01-11T04:45:17;80.68;;;30.90;;
25583;SDS011;13463;51.526;9.928;2024-01-11T04:47:43;90.55;;;35.80;;
25583;SDS011;13463;51.526;9.928;2024-01-11T04:50:10;83.90;;;34.80;;
25583;SDS011;13463;51.526;9.928;2024-01-11T04:52:36;85.20;;;33.83;;
25583;SDS011;13463;51.526;9.928;2024-01-11T04:55:03;83.18;;;33.45;;
25583;SDS011;13463;51.526;9.928;2024-01-11T04:57:30;85.97;;;34.65;;
25583;SDS011;13463;51.526;9.928;2024-01-11T04:59:56;74.60;;;32.70;;
25583;SDS011;13463;51.526;9.928;2024-01-11T05:02:27;81.57;;;33.70;;
25583;SDS011;13463;51.526;9.928;2024-01-11T05:04:54;77.07;;;32.63;;
25583;SDS011;13463;51.526;9.928;2024-01-11T05:07:20;74.57;;;35.70;;
25583;SDS011;13463;51.526;9.928;2024-01-11T05:09:47;84.97;;;34.10;;
25583;SDS011;13463;51.526;9.928;2024-01-11T05:12:13;88.93;;;34.97;;
25583;SDS011;13463;51.526;9.928;2024-01-11T05:14:40;88.35;;;35.30;;
25583;SDS011;13463;51.526;9.928;2024-01-11T05:17:07;87.15;;;34.65;;
25583;SDS011;13463;51.526;9.928;2024-01-11T05:19:34;82.93;;;32.00;;
25583;SDS011;13463;51.526;9.928;2024-01-11T05:22:01;94.70;;;36.20;;
25583;SDS011;13463;51.526;9.928;2024-01-11T05:24:27;80.38;;;33.53;;
25583;SDS011;13463;51.526;9.928;2024-01-11T05:26:54;83.20;;;33.17;;
25583;SDS011;13463;51.526;9.928;2024-01-11T05:29:21;80.70;;;33.30;;
25583;SDS011;13463;51.526;9.928;2024-01-11T05:31:47;76.75;;;31.30;;
25583;SDS011;13463;51.526;9.928;2024-01-11T05:34:14;85.30;;;34.28;;
25583;SDS011;13463;51.526;9.928;2024-01-11T05:36:41;74.53;;;32.45;;
25583;SDS011;13463;51.526;9.928;2024-01-11T05:39:08;82.75;;;33.50;;
25583;SDS011;13463;51.526;9.928;2024-01-11T05:41:34;76.32;;;33.22;;
25583;SDS011;13463;51.526;9.928;2024-01-11T05:44:01;83.65;;;33.50;;
25583;SDS011;13463;51.526;9.928;2024-01-11T05:46:27;87.93;;;36.55;;
25583;SDS011;13463;51.526;9.928;2024-01-11T05:48:57;87.57;;;34.55;;
25583;SDS011;13463;51.526;9.928;2024-01-11T05:51:24;81.40;;;33.45;;
25583;SDS011;13463;51.526;9.928;2024-01-11T05:53:50;76.10;;;31.98;;
25583;SDS011;13463;51.526;9.928;2024-01-11T05:56:18;82.32;;;34.50;;
25583;SDS011;13463;51.526;9.928;2024-01-11T05:58:46;80.55;;;35.30;;
25583;SDS011;13463;51.526;9.928;2024-01-11T06:01:13;75.25;;;30.55;;
25583;SDS011;13463;51.526;9.928;2024-01-11T06:03:40;85.40;;;33.17;;
25583;SDS011;13463;51.526;9.928;2024-01-11T06:06:06;77.32;;;31.85;;
25583;SDS011;13463;51.526;9.928;2024-01-11T06:08:33;91.97;;;34.97;;
25583;SDS011;13463;51.526;9.928;2024-01-11T06:11:00;81.63;;;33.55;;
25583;SDS011;13463;51.526;9.928;2024-01-11T06:13:26;80.90;;;33.33;;
25583;SDS011;13463;51.526;9.928;2024-01-11T06:15:54;81.55;;;32.67;;
25583;SDS011;13463;51.526;9.928;2024-01-11T06:18:20;73.47;;;32.00;;
25583;SDS011;13463;51.526;9.928;2024-01-11T06:20:47;79.40;;;34.22;;
25583;SDS011;13463;51.526;9.928;2024-01-11T06:23:14;77.03;;;31.02;;
25583;SDS011;13463;51.526;9.928;2024-01-11T06:25:46;81.75;;;32.95;;
25583;SDS011;13463;51.526;9.928;2024-01-11T06:28:12;76.32;;;31.65;;
25583;SDS011;13463;51.526;9.928;2024-01-11T06:30:39;74.32;;;30.85;;
25583;SDS011;13463;51.526;9.928;2024-01-11T06:33:06;79.88;;;32.95;;
25583;SDS011;13463;51.526;9.928;2024-01-11T06:35:32;83.25;;;32.55;;
25583;SDS011;13463;51.526;9.928;2024-01-11T06:37:59;76.60;;;32.67;;
25583;SDS011;13463;51.526;9.928;2024-01-11T06:40:26;75.93;;;32.38;;
25583;SDS011;13463;51.526;9.928;2024-01-11T06:42:53;79.70;;;34.75;;
25583;SDS011;13463;51.526;9.928;2024-01-11T06:45:19;87.28;;;35.72;;
25583;SDS011;13463;51.526;9.928;2024-01-11T06:47:46;74.97;;;32.13;;
25583;SDS011;13463;51.526;9.928;2024-01-11T06:50:13;68.10;;;31.48;;
25583;SDS011;13463;51.526;9.928;2024-01-11T06:52:40;76.28;;;30.42;;
25583;SDS011;13463;51.526;9.928;2024-01-11T06:55:07;78.35;;;31.05;;
25583;SDS011;13463;51.526;9.928;2024-01-11T06:57:34;75.38;;;31.98;;
25583;SDS011;13463;51.526;9.928;2024-01-11T07:00:00;82.30;;;33.35;;
25583;SDS011;13463;51.526;9.928;2024-01-11T07:02:27;77.72;;;31.30;;
25583;SDS011;13463;51.526;9.928;2024-01-11T07:04:54;76.95;;;33.42;;
25583;SDS011;13463;51.526;9.928;2024-01-11T07:07:20;71.93;;;30.23;;
25583;SDS011;13463;51.526;9.928;2024-01-11T07:09:47;76.35;;;31.00;;
25583;SDS011;13463;51.526;9.928;2024-01-11T07:12:13;77.82;;;34.85;;
25583;SDS011;13463;51.526;9.928;2024-01-11T07:14:40;73.97;;;31.42;;
25583;SDS011;13463;51.526;9.928;2024-01-11T07:17:06;72.10;;;32.05;;
25583;SDS011;13463;51.526;9.928;2024-01-11T07:19:33;76.80;;;31.42;;
25583;SDS011;13463;51.526;9.928;2024-01-11T07:22:00;80.28;;;32.60;;
25583;SDS011;13463;51.526;9.928;2024-01-11T07:24:26;76.68;;;32.92;;
25583;SDS011;13463;51.526;9.928;2024-01-11T07:26:53;69.03;;;30.85;;
25583;SDS011;13463;51.526;9.928;2024-01-11T07:29:20;69.93;;;30.30;;
25583;SDS011;13463;51.526;9.928;2024-01-11T07:31:47;77.95;;;32.17;;
25583;SDS011;13463;51.526;9.928;2024-01-11T07:34:16;76.13;;;30.48;;
25583;SDS011;13463;51.526;9.928;2024-01-11T07:36:44;69.30;;;29.20;;
25583;SDS011;13463;51.526;9.928;2024-01-11T07:39:10;78.20;;;33.20;;
25583;SDS011;13463;51.526;9.928;2024-01-11T07:41:37;75.68;;;32.75;;
25583;SDS011;13463;51.526;9.928;2024-01-11T07:44:04;84.45;;;31.77;;
25583;SDS011;13463;51.526;9.928;2024-01-11T07:46:32;78.95;;;31.52;;
25583;SDS011;13463;51.526;9.928;2024-01-11T07:49:11;79.97;;;32.03;;
25583;SDS011;13463;51.526;9.928;2024-01-11T07:51:38;84.30;;;33.38;;
25583;SDS011;13463;51.526;9.928;2024-01-11T07:54:05;81.15;;;34.50;;
25583;SDS011;13463;51.526;9.928;2024-01-11T07:56:31;80.45;;;32.63;;
25583;SDS011;13463;51.526;9.928;2024-01-11T07:58:59;76.13;;;35.03;;
25583;SDS011;13463;51.526;9.928;2024-01-11T08:01:26;87.57;;;33.83;;
25583;SDS011;13463;51.526;9.928;2024-01-11T08:03:53;101.15;;;39.28;;
25583;SDS011;13463;51.526;9.928;2024-01-11T08:06:20;82.97;;;33.90;;
25583;SDS011;13463;51.526;9.928;2024-01-11T08:08:46;78.20;;;34.20;;
25583;SDS011;13463;51.526;9.928;2024-01-11T08:11:18;82.57;;;34.15;;
25583;SDS011;13463;51.526;9.928;2024-01-11T08:13:45;79.53;;;34.08;;
25583;SDS011;13463;51.526;9.928;2024-01-11T08:16:18;81.68;;;32.08;;
25583;SDS011;13463;51.526;9.928;2024-01-11T08:18:45;94.10;;;35.00;;
25583;SDS011;13463;51.526;9.928;2024-01-11T08:21:12;86.20;;;33.83;;
25583;SDS011;13463;51.526;9.928;2024-01-11T08:23:42;83.78;;;31.70;;
25583;SDS011;13463;51.526;9.928;2024-01-11T08:26:14;82.30;;;34.22;;
25583;SDS011;13463;51.526;9.928;2024-01-11T08:28:41;78.07;;;33.25;;
25583;SDS011;13463;51.526;9.928;2024-01-11T08:31:08;84.55;;;35.17;;
25583;SDS011;13463;51.526;9.928;2024-01-11T08:33:35;86.47;;;35.83;;
25583;SDS011;13463;51.526;9.928;2024-01-11T08:38:32;86.07;;;32.95;;
25583;SDS011;13463;51.526;9.928;2024-01-11T08:40:59;86.60;;;35.40;;
25583;SDS011;13463;51.526;9.928;2024-01-11T08:43:26;77.60;;;32.75;;
25583;SDS011;13463;51.526;9.928;2024-01-11T08:45:52;83.13;;;35.72;;
25583;SDS011;13463;51.526;9.928;2024-01-11T08:48:19;82.20;;;34.03;;
25583;SDS011;13463;51.526;9.928;2024-01-11T08:50:46;81.45;;;31.98;;
25583;SDS011;13463;51.526;9.928;2024-01-11T08:53:12;83.55;;;35.13;;
25583;SDS011;13463;51.526;9.928;2024-01-11T08:55:39;82.35;;;33.55;;
25583;SDS011;13463;51.526;9.928;2024-01-11T08:58:08;71.45;;;32.15;;
25583;SDS011;13463;51.526;9.928;2024-01-11T09:00:35;83.00;;;33.20;;
25583;SDS011;13463;51.526;9.928;2024-01-11T09:03:02;81.72;;;36.28;;
25583;SDS011;13463;51.526;9.928;2024-01-11T09:05:29;81.35;;;34.90;;
25583;SDS011;13463;51.526;9.928;2024-01-11T09:07:56;83.10;;;33.38;;
25583;SDS011;13463;51.526;9.928;2024-01-11T09:10:22;80.60;;;33.78;;
25583;SDS011;13463;51.526;9.928;2024-01-11T09:12:49;80.70;;;35.72;;
25583;SDS011;13463;51.526;9.928;2024-01-11T09:15:16;85.07;;;34.67;;
25583;SDS011;13463;51.526;9.928;2024-01-11T09:17:42;83.25;;;35.67;;
25583;SDS011;13463;51.526;9.928;2024-01-11T09:20:09;79.88;;;36.05;;
25583;SDS011;13463;51.526;9.928;2024-01-11T09:22:40;84.57;;;34.85;;
25583;SDS011;13463;51.526;9.928;2024-01-11T09:25:07;75.45;;;34.13;;
25583;SDS011;13463;51.526;9.928;2024-01-11T09:27:35;76.00;;;35.75;;
25583;SDS011;13463;51.526;9.928;2024-01-11T09:30:01;76.72;;;33.55;;
25583;SDS011;13463;51.526;9.928;2024-01-11T09:32:28;81.03;;;34.55;;
25583;SDS011;13463;51.526;9.928;2024-01-11T09:34:57;78.22;;;35.75;;
25583;SDS011;13463;51.526;9.928;2024-01-11T09:37:24;82.72;;;34.58;;
25583;SDS011;13463;51.526;9.928;2024-01-11T09:39:51;79.18;;;34.92;;
25583;SDS011;13463;51.526;9.928;2024-01-11T09:42:17;76.80;;;36.47;;
25583;SDS011;13463;51.526;9.928;2024-01-11T09:44:44;78.15;;;34.92;;
25583;SDS011;13463;51.526;9.928;2024-01-11T09:47:11;76.65;;;34.03;;
25583;SDS011;13463;51.526;9.928;2024-01-11T09:49:43;80.63;;;34.22;;
25583;SDS011;13463;51.526;9.928;2024-01-11T09:52:11;69.68;;;30.40;;
25583;SDS011;13463;51.526;9.928;2024-01-11T09:54:39;84.90;;;35.13;;
25583;SDS011;13463;51.526;9.928;2024-01-11T09:57:09;79.22;;;35.63;;
25583;SDS011;13463;51.526;9.928;2024-01-11T09:59:36;85.47;;;37.00;;
25583;SDS011;13463;51.526;9.928;2024-01-11T10:02:03;86.07;;;37.28;;
25583;SDS011;13463;51.526;9.928;2024-01-11T10:04:34;75.90;;;34.80;;
25583;SDS011;13463;51.526;9.928;2024-01-11T10:07:02;81.90;;;35.92;;
25583;SDS011;13463;51.526;9.928;2024-01-11T10:09:32;83.65;;;36.72;;
25583;SDS011;13463;51.526;9.928;2024-01-11T10:12:00;81.22;;;35.65;;
25583;SDS011;13463;51.526;9.928;2024-01-11T10:14:30;91.70;;;38.72;;
25583;SDS011;13463;51.526;9.928;2024-01-11T10:16:58;82.10;;;36.03;;
25583;SDS011;13463;51.526;9.928;2024-01-11T10:19:25;89.22;;;38.45;;
25583;SDS011;13463;51.526;9.928;2024-01-11T10:21:52;81.05;;;36.92;;
25583;SDS011;13463;51.526;9.928;2024-01-11T10:24:19;81.25;;;37.45;;
25583;SDS011;13463;51.526;9.928;2024-01-11T10:26:47;83.95;;;37.80;;
25583;SDS011;13463;51.526;9.928;2024-01-11T10:29:14;88.53;;;37.70;;
25583;SDS011;13463;51.526;9.928;2024-01-11T10:31:40;77.20;;;35.95;;
25583;SDS011;13463;51.526;9.928;2024-01-11T10:34:07;87.82;;;34.83;;
25583;SDS011;13463;51.526;9.928;2024-01-11T10:36:34;80.95;;;36.15;;
25583;SDS011;13463;51.526;9.928;2024-01-11T10:39:03;79.78;;;35.08;;
25583;SDS011;13463;51.526;9.928;2024-01-11T10:41:38;83.43;;;34.42;;
25583;SDS011;13463;51.526;9.928;2024-01-11T10:44:12;76.40;;;34.03;;
25583;SDS011;13463;51.526;9.928;2024-01-11T10:46:46;82.97;;;36.28;;
25583;SDS011;13463;51.526;9.928;2024-01-11T10:49:15;76.00;;;34.35;;
25583;SDS011;13463;51.526;9.928;2024-01-11T10:51:49;73.95;;;34.55;;
25583;SDS011;13463;51.526;9.928;2024-01-11T10:54:24;79.45;;;36.53;;
25583;SDS011;13463;51.526;9.928;2024-01-11T10:56:52;83.18;;;36.75;;
25583;SDS011;13463;51.526;9.928;2024-01-11T10:59:21;84.35;;;36.97;;
25583;SDS011;13463;51.526;9.928;2024-01-11T11:01:52;87.00;;;38.72;;
25583;SDS011;13463;51.526;9.928;2024-01-11T11:04:20;82.50;;;36.40;;
25583;SDS011;13463;51.526;9.928;2024-01-11T11:06:49;78.40;;;36.47;;
25583;SDS011;13463;51.526;9.928;2024-01-11T11:09:17;77.75;;;37.35;;
25583;SDS011;13463;51.526;9.928;2024-01-11T11:11:45;82.53;;;37.53;;
25583;SDS011;13463;51.526;9.928;2024-01-11T11:14:14;82.78;;;37.47;;
25583;SDS011;13463;51.526;9.928;2024-01-11T11:16:41;75.70;;;34.45;;
25583;SDS011;13463;51.526;9.928;2024-01-11T11:19:08;77.93;;;36.83;;
25583;SDS011;13463;51.526;9.928;2024-01-11T11:21:41;72.43;;;35.05;;
25583;SDS011;13463;51.526;9.928;2024-01-11T11:24:09;76.22;;;35.88;;
25583;SDS011;13463;51.526;9.928;2024-01-11T11:26:36;80.25;;;34.83;;
25583;SDS011;13463;51.526;9.928;2024-01-11T11:29:03;86.10;;;38.63;;
25583;SDS011;13463;51.526;9.928;2024-01-11T11:31:43;72.75;;;34.22;;
25583;SDS011;13463;51.526;9.928;2024-01-11T11:34:14;86.05;;;34.97;;
25583;SDS011;13463;51.526;9.928;2024-01-11T11:36:41;79.65;;;36.75;;
25583;SDS011;13463;51.526;9.928;2024-01-11T11:39:12;87.50;;;35.95;;
25583;SDS011;13463;51.526;9.928;2024-01-11T11:41:39;72.72;;;36.75;;
25583;SDS011;13463;51.526;9.928;2024-01-11T11:44:08;75.32;;;33.78;;
25583;SDS011;13463;51.526;9.928;2024-01-11T11:46:40;72.70;;;31.88;;
25583;SDS011;13463;51.526;9.928;2024-01-11T11:49:07;76.53;;;33.45;;
25583;SDS011;13463;51.526;9.928;2024-01-11T11:51:33;72.30;;;33.08;;
25583;SDS011;13463;51.526;9.928;2024-01-11T11:54:01;79.07;;;33.47;;
25583;SDS011;13463;51.526;9.928;2024-01-11T11:56:29;68.28;;;32.00;;
25583;SDS011;13463;51.526;9.928;2024-01-11T11:58:56;80.78;;;38.17;;
25583;SDS011;13463;51.526;9.928;2024-01-11T12:01:24;65.95;;;31.05;;
25583;SDS011;13463;51.526;9.928;2024-01-11T12:03:51;67.53;;;32.85;;
25583;SDS011;13463;51.526;9.928;2024-01-11T12:06:20;71.05;;;32.42;;
25583;SDS011;13463;51.526;9.928;2024-01-11T12:08:49;64.93;;;32.30;;
25583;SDS011;13463;51.526;9.928;2024-01-11T12:11:21;76.70;;;33.42;;
25583;SDS011;13463;51.526;9.928;2024-01-11T12:13:49;69.28;;;31.33;;
25583;SDS011;13463;51.526;9.928;2024-01-11T12:16:16;65.10;;;32.78;;
25583;SDS011;13463;51.526;9.928;2024-01-11T12:18:43;67.00;;;33.15;;
25583;SDS011;13463;51.526;9.928;2024-01-11T12:21:10;59.72;;;29.80;;
25583;SDS011;13463;51.526;9.928;2024-01-11T12:23:38;62.90;;;29.42;;
25583;SDS011;13463;51.526;9.928;2024-01-11T12:26:06;58.50;;;27.95;;
25583;SDS011;13463;51.526;9.928;2024-01-11T12:28:39;58.42;;;28.08;;
25583;SDS011;13463;51.526;9.928;2024-01-11T12:31:07;55.85;;;26.25;;
25583;SDS011;13463;51.526;9.928;2024-01-11T12:33:33;51.33;;;24.17;;
25583;SDS011;13463;51.526;9.928;2024-01-11T12:36:03;53.70;;;23.92;;
25583;SDS011;13463;51.526;9.928;2024-01-11T12:38:33;59.20;;;23.90;;
25583;SDS011;13463;51.526;9.928;2024-01-11T12:41:00;47.63;;;23.52;;
25583;SDS011;13463;51.526;9.928;2024-01-11T12:43:27;56.90;;;25.77;;
25583;SDS011;13463;51.526;9.928;2024-01-11T12:45:56;60.93;;;25.33;;
25583;SDS011;13463;51.526;9.928;2024-01-11T12:48:23;52.13;;;25.00;;
25583;SDS011;13463;51.526;9.928;2024-01-11T12:50:50;49.05;;;26.20;;
25583;SDS011;13463;51.526;9.928;2024-01-11T12:53:35;57.65;;;27.77;;
25583;SDS011;13463;51.526;9.928;2024-01-11T12:56:04;63.45;;;26.60;;
25583;SDS011;13463;51.526;9.928;2024-01-11T12:58:37;56.92;;;27.20;;
25583;SDS011;13463;51.526;9.928;2024-01-11T13:01:05;52.53;;;26.42;;
25583;SDS011;13463;51.526;9.928;2024-01-11T13:03:38;51.40;;;26.07;;
25583;SDS011;13463;51.526;9.928;2024-01-11T13:06:05;50.88;;;25.77;;
25583;SDS011;13463;51.526;9.928;2024-01-11T13:08:32;57.63;;;25.92;;
25583;SDS011;13463;51.526;9.928;2024-01-11T13:11:03;58.42;;;25.55;;
25583;SDS011;13463;51.526;9.928;2024-01-11T13:13:33;58.47;;;28.08;;
25583;SDS011;13463;51.526;9.928;2024-01-11T13:16:01;67.05;;;29.17;;
25583;SDS011;13463;51.526;9.928;2024-01-11T13:18:37;63.45;;;29.65;;
25583;SDS011;13463;51.526;9.928;2024-01-11T13:21:04;57.58;;;26.95;;
25583;SDS011;13463;51.526;9.928;2024-01-11T13:23:33;63.22;;;28.00;;
25583;SDS011;13463;51.526;9.928;2024-01-11T13:26:00;61.22;;;28.27;;
25583;SDS011;13463;51.526;9.928;2024-01-11T13:28:26;56.78;;;25.85;;
25583;SDS011;13463;51.526;9.928;2024-01-11T13:30:53;53.78;;;26.60;;
25583;SDS011;13463;51.526;9.928;2024-01-11T13:33:20;58.45;;;25.75;;
25583;SDS011;13463;51.526;9.928;2024-01-11T13:35:49;56.03;;;26.45;;
25583;SDS011;13463;51.526;9.928;2024-01-11T13:38:16;51.63;;;26.17;;
25583;SDS011;13463;51.526;9.928;2024-01-11T13:40:42;58.90;;;27.05;;
25583;SDS011;13463;51.526;9.928;2024-01-11T13:43:09;56.58;;;27.95;;
25583;SDS011;13463;51.526;9.928;2024-01-11T13:45:36;59.90;;;28.40;;
25583;SDS011;13463;51.526;9.928;2024-01-11T13:48:03;64.75;;;26.15;;
25583;SDS011;13463;51.526;9.928;2024-01-11T13:50:31;56.00;;;27.00;;
25583;SDS011;13463;51.526;9.928;2024-01-11T13:52:59;54.97;;;27.08;;
25583;SDS011;13463;51.526;9.928;2024-01-11T13:55:26;80.57;;;36.35;;
25583;SDS011;13463;51.526;9.928;2024-01-11T13:57:53;52.03;;;23.60;;
25583;SDS011;13463;51.526;9.928;2024-01-11T14:00:19;49.60;;;24.20;;
25583;SDS011;13463;51.526;9.928;2024-01-11T14:02:47;55.30;;;25.08;;
25583;SDS011;13463;51.526;9.928;2024-01-11T14:05:14;49.15;;;22.42;;
25583;SDS011;13463;51.526;9.928;2024-01-11T14:07:44;34.45;;;17.13;;
25583;SDS011;13463;51.526;9.928;2024-01-11T14:10:11;33.80;;;17.20;;
25583;SDS011;13463;51.526;9.928;2024-01-11T14:12:39;26.58;;;12.73;;
25583;SDS011;13463;51.526;9.928;2024-01-11T14:15:06;36.50;;;15.18;;
25583;SDS011;13463;51.526;9.928;2024-01-11T14:17:38;23.17;;;12.45;;
25583;SDS011;13463;51.526;9.928;2024-01-11T14:20:05;23.25;;;10.82;;
25583;SDS011;13463;51.526;9.928;2024-01-11T14:22:39;23.83;;;11.75;;
25583;SDS011;13463;51.526;9.928;2024-01-11T14:25:07;22.33;;;11.90;;
25583;SDS011;13463;51.526;9.928;2024-01-11T14:27:35;22.27;;;11.18;;